• Join FlightAware (Why Join?)
  • Login
  • US Flag 
Rudolph Flight #1: Arrived! 
09:20PM EST


 

Airport Tracker/Info


-or-


 

Live Flight TrackerFlight Track Log ✈ TCF3494 ✈ 19-Apr-2013 ✈ KBDR - KORD

Flight Track Log - Related Links

Times and Time Zones

All times are in EDT time to prevent confusion due to time zone crossing. See the TCF3494 flight status page for this flight to view local times or setup timezone preferences in your user account.

Time Position Orientation Groundspeed Altitude Reporting Facility
EDT Latitude Longitude Course Direction KTS MPH feet Rate Location/Type
08:49PM 43.0758 -74.6490 274° West  Level FlightAware Approximate
08:50PM 43.0819 -74.7609 274° West  Level FlightAware Approximate
08:51PM 43.0878 -74.8727 274° West  Level FlightAware Approximate
08:52PM 43.0938 -74.9865 274° West  Level FlightAware Approximate
08:53PM 43.0996 -75.1003 274° West  Level FlightAware Approximate
08:54PM 43.1054 -75.2158 274° West  Level FlightAware Approximate
08:55PM 43.1111 -75.3314 274° West  Level FlightAware Approximate
08:56PM 43.1166 -75.4470 274° West  Level FlightAware Approximate
08:57PM 43.1222 -75.5664 274° West  Level FlightAware Approximate
08:58PM 43.1278 -75.6858 274° West  Level FlightAware Approximate
08:59PM 43.1331 -75.8052 274° West  Level FlightAware Approximate
09:00PM 43.1384 -75.9247 273° West  Level FlightAware Approximate
09:01PM 43.1435 -76.0441 273° West  Level FlightAware Approximate
09:02PM 43.1485 -76.1636 273° West  Level FlightAware Approximate
09:03PM 43.1502 -76.2882 270° West  Level FlightAware Approximate
09:04PM 43.1503 -76.4104 270° West  Level FlightAware Approximate
09:05PM 43.1503 -76.5325 270° West  Level FlightAware Approximate
09:06PM 43.1502 -76.6547 270° West  Level FlightAware Approximate
09:07PM 43.1500 -76.7769 270° West  Level FlightAware Approximate
09:08PM 43.1494 -76.9000 270° West  Level FlightAware Approximate
09:09PM 43.1488 -77.0232 270° West  Level FlightAware Approximate
09:10PM 43.1480 -77.1463 270° West  Level FlightAware Approximate
09:11PM 43.1471 -77.2694 269° West  Level FlightAware Approximate
09:12PM 43.1460 -77.3926 269° West  Level FlightAware Approximate
09:13PM 43.1448 -77.5157 269° West  Level FlightAware Approximate
09:14PM 43.1366 -77.6412 265° West  Level Estimated
09:15PM 43.1282 -77.7666 265° West  Level Estimated
09:16PM 43.1197 -77.8920 265° West  Level Estimated
09:17PM 43.1111 -78.0174 265° West  Level Estimated
09:18PM 43.1023 -78.1427 265° West  Level Estimated
09:19PM 43.0929 -78.2745 264° West  Level Estimated
09:20PM 43.0834 -78.4063 264° West  Level Estimated
09:21PM 43.0737 -78.5380 264° West  Level Estimated
09:22PM 43.0638 -78.6697 264° West  Level Estimated
09:23PM 43.0538 -78.8013 264° West  Level Estimated
09:24PM 43.0437 -78.9329 264° West  Level Estimated
09:25PM 43.0334 -79.0645 264° West  Level Estimated
09:26PM 43.0229 -79.1960 264° West  Level Estimated
09:27PM 43.0123 -79.3275 264° West  Level Estimated
09:28PM 43.0016 -79.4589 264° West  Level Estimated
09:29PM 42.9907 -79.5903 264° West  Level Estimated
09:30PM 42.9796 -79.7216 263° West  Level Estimated
09:31PM 42.9684 -79.8529 263° West  Level Estimated
09:32PM 42.9571 -79.9841 263° West  Level Estimated
09:33PM 42.9456 -80.1153 263° West  Level Estimated
09:34PM 42.9339 -80.2464 263° West  Level Estimated
09:35PM 42.9221 -80.3775 263° West  Level Estimated
09:36PM 42.9102 -80.5085 263° West  Level Estimated
09:37PM 42.8981 -80.6395 263° West  Level Estimated
09:38PM 42.8858 -80.7704 263° West  Level Estimated
09:39PM 42.8734 -80.9013 263° West  Level Estimated
09:40PM 42.8609 -81.0321 263° West  Level Estimated
09:41PM 42.8482 -81.1629 263° West  Level Estimated
09:42PM 42.8354 -81.2936 262° West  Level Estimated
09:43PM 42.8224 -81.4243 262° West  Level Estimated
09:44PM 42.8092 -81.5549 262° West  Level Estimated
09:45PM 42.7960 -81.6854 262° West  Level Estimated
09:46PM 42.7825 -81.8159 262° West  Level Estimated
09:47PM 42.7689 -81.9464 262° West  Level Estimated
09:48PM 42.7552 -82.0768 262° West  Level Estimated
09:49PM 42.7413 -82.2071 262° West  Level Estimated
09:50PM 42.7273 -82.3373 262° West  Level Estimated
09:51PM 42.7131 -82.4675 262° West  Level Estimated
09:52PM 42.6988 -82.5977 262° West  Level Estimated
09:53PM 42.6843 -82.7278 261° West  Level Estimated
09:54PM 42.6697 -82.8578 261° West  Level Estimated
09:55PM 42.6550 -82.9877 261° West  Level Estimated
09:56PM 42.6400 -83.1176 261° West  Level Estimated
09:57PM 42.6250 -83.2475 261° West  Level Estimated
09:58PM 42.6098 -83.3773 261° West  Level Estimated
09:59PM 42.5944 -83.5070 261° West  Level Estimated
10:00PM 42.5789 -83.6366 261° West  Level Estimated
10:01PM 42.5633 -83.7662 261° West  Level Estimated
10:02PM 42.5475 -83.8957 261° West  Level Estimated
10:03PM 42.5316 -84.0252 261° West  Level Estimated
10:04PM 42.5155 -84.1545 260° West  Level Estimated
10:05PM 42.4993 -84.2839 260° West  Level Estimated
10:06PM 42.4829 -84.4131 260° West  Level Estimated
10:07PM 42.4664 -84.5423 260° West  Level Estimated
10:08PM 42.4497 -84.6714 260° West  Level Estimated
10:09PM 42.4329 -84.8005 260° West  Level Estimated
10:10PM 42.4160 -84.9294 260° West  Level Estimated
10:11PM 42.3989 -85.0583 260° West  Level Estimated
10:12PM 42.3817 -85.1872 260° West  Level Estimated
10:13PM 42.3643 -85.3159 260° West  Level Estimated
10:14PM 42.3467 -85.4446 260° West  Level Estimated
10:15PM 42.3291 -85.5732 260° West  Level Estimated
10:16PM 42.3113 -85.7018 259° West  Level Estimated
10:17PM 42.2933 -85.8303 259° West  Level Estimated
10:18PM 42.2752 -85.9587 259° West  Level Estimated
10:19PM 42.2570 -86.0870 259° West  Level Estimated
10:20PM 42.2386 -86.2152 259° West  Level Estimated
10:21PM 42.2201 -86.3434 259° West  Level Estimated
10:22PM 42.2014 -86.4715 259° West  Level Estimated
10:23PM 42.1826 -86.5996 259° West  Level Estimated
10:24PM 42.1636 -86.7275 259° West  Level Estimated
10:25PM 42.1445 -86.8554 259° West  Level Estimated
10:26PM 42.1253 -86.9832 259° West  Level Estimated
10:27PM 42.1059 -87.1109 258° West  Level Estimated
10:28PM 42.0864 -87.2385 258° West  Level Estimated
10:29PM 42.0667 -87.3661 258° West  Level Estimated
10:30PM 42.0469 -87.4936 258° West  Level Estimated
10:31PM 42.0269 -87.6210 258° West  Level Estimated
10:32PM 42.0069 -87.7483 258° West  Level Estimated
10:33PM 41.9866 -87.8755 258° West  Level Estimated
10:34PM 41.9817 -87.9067 258° West  Level Estimated
10:35PM 41.9817 -87.9067 217° Southwest  Level Estimated
10:36PM 41.9817 -87.9067 217° Southwest  Level Estimated
10:37PM 41.9817 -87.9067 217° Southwest  Level Estimated
10:38PM 41.9817 -87.9067 217° Southwest  Level Estimated
10:39PM 41.9817 -87.9067 217° Southwest  Level Estimated
10:40PM 41.9817 -87.9067 217° Southwest  Level Estimated
10:41PM 41.9817 -87.9067 217° Southwest  Level Estimated
10:42PM 41.9817 -87.9067 217° Southwest  Level Estimated
10:43PM 41.9817 -87.9067 217° Southwest  Level Estimated
10:44PM 41.9817 -87.9067 217° Southwest  Level Estimated
10:45PM 41.9817 -87.9067 217° Southwest  Level Estimated
10:46PM 41.9817 -87.9067 217° Southwest  Level Estimated
10:47PM 41.9817 -87.9067 217° Southwest  Level Estimated
10:48PM 41.9817 -87.9067 217° Southwest  Level Estimated
10:49PM 41.9817 -87.9067 217° Southwest  Level Estimated
10:50PM 41.9817 -87.9067 217° Southwest  Level Estimated
10:51PM 41.9817 -87.9067 217° Southwest  Level Estimated
10:52PM 41.9817 -87.9067 217° Southwest  Level Estimated
10:53PM 41.9817 -87.9067 217° Southwest  Level Estimated
10:54PM 41.9817 -87.9067 217° Southwest  Level Estimated
10:55PM 41.9817 -87.9067 217° Southwest  Level Estimated
10:56PM 41.9817 -87.9067 217° Southwest  Level Estimated
10:57PM 41.9817 -87.9067 217° Southwest  Level Estimated
10:58PM 41.9817 -87.9067 217° Southwest  Level Estimated
10:59PM 41.9817 -87.9067 217° Southwest  Level Estimated
11:00PM 41.9817 -87.9067 217° Southwest  Level Estimated
11:01PM 41.9817 -87.9067 217° Southwest  Level Estimated
11:02PM 41.9817 -87.9067 217° Southwest  Level Estimated
11:03PM 41.9817 -87.9067 217° Southwest  Level Estimated
11:04PM 41.9817 -87.9067 217° Southwest  Level Estimated
11:05PM 41.9817 -87.9067 217° Southwest  Level Estimated
11:06PM 41.9817 -87.9067 217° Southwest  Level Estimated
11:07PM 41.9817 -87.9067 217° Southwest  Level Estimated
11:08PM 41.9817 -87.9067 217° Southwest  Level Estimated
11:09PM 41.9817 -87.9067 217° Southwest  Level Estimated
11:10PM 41.9817 -87.9067 217° Southwest  Level Estimated
11:11PM 41.9817 -87.9067 217° Southwest  Level Estimated
11:12PM 41.9817 -87.9067 217° Southwest  Level Estimated
11:13PM 41.9817 -87.9067 217° Southwest  Level Estimated
11:14PM 41.9817 -87.9067 217° Southwest  Level Estimated
11:15PM 41.9817 -87.9067 217° Southwest  Level Estimated
11:16PM 41.9817 -87.9067 217° Southwest  Level Estimated
11:17PM 41.9817 -87.9067 217° Southwest  Level Estimated
11:18PM 41.9817 -87.9067 217° Southwest  Level Estimated
11:19PM 41.9817 -87.9067 217° Southwest  Level Estimated
11:20PM 41.9817 -87.9067 217° Southwest  Level Estimated
11:21PM 41.9817 -87.9067 217° Southwest  Level Estimated
11:22PM 41.9817 -87.9067 217° Southwest  Level Estimated
11:23PM 41.9817 -87.9067 217° Southwest  Level Estimated
11:24PM 41.9817 -87.9067 217° Southwest  Level Estimated
11:25PM 41.9817 -87.9067 217° Southwest  Level Estimated
11:26PM 41.9817 -87.9067 217° Southwest  Level Estimated
11:27PM 41.9817 -87.9067 217° Southwest  Level Estimated
11:28PM 41.9817 -87.9067 217° Southwest  Level Estimated
11:29PM 41.9817 -87.9067 217° Southwest  Level Estimated
11:30PM 41.9817 -87.9067 217° Southwest  Level Estimated
11:31PM 41.9817 -87.9067 217° Southwest  Level Estimated
11:32PM 41.9817 -87.9067 217° Southwest  Level Estimated
11:33PM 41.9817 -87.9067 217° Southwest  Level Estimated
11:34PM 41.9817 -87.9067 217° Southwest  Level Estimated
11:35PM 41.9817 -87.9067 217° Southwest  Level Estimated
11:36PM 41.9817 -87.9067 217° Southwest  Level Estimated
11:37PM 41.9817 -87.9067 217° Southwest  Level Estimated